sensor_id;sensor_type;location;lat;lon;timestamp;P1;durP1;ratioP1;P2;durP2;ratioP2
79130;SDS011;70394;45.194;9.142;2023-06-22T00:00:48;5.88;;;3.63;;
79130;SDS011;70394;45.194;9.142;2023-06-22T00:03:15;4.65;;;3.65;;
79130;SDS011;70394;45.194;9.142;2023-06-22T00:05:42;5.18;;;3.72;;
79130;SDS011;70394;45.194;9.142;2023-06-22T00:08:07;5.00;;;3.83;;
79130;SDS011;70394;45.194;9.142;2023-06-22T00:10:32;7.45;;;4.00;;
79130;SDS011;70394;45.194;9.142;2023-06-22T00:12:58;5.50;;;3.97;;
79130;SDS011;70394;45.194;9.142;2023-06-22T00:15:23;4.72;;;3.60;;
79130;SDS011;70394;45.194;9.142;2023-06-22T00:17:49;5.60;;;3.75;;
79130;SDS011;70394;45.194;9.142;2023-06-22T00:20:15;5.20;;;3.70;;
79130;SDS011;70394;45.194;9.142;2023-06-22T00:22:41;5.82;;;4.05;;
79130;SDS011;70394;45.194;9.142;2023-06-22T00:25:07;4.60;;;3.47;;
79130;SDS011;70394;45.194;9.142;2023-06-22T00:27:34;6.07;;;4.07;;
79130;SDS011;70394;45.194;9.142;2023-06-22T00:30:00;5.78;;;3.75;;
79130;SDS011;70394;45.194;9.142;2023-06-22T00:32:25;5.97;;;3.80;;
79130;SDS011;70394;45.194;9.142;2023-06-22T00:34:51;5.35;;;4.13;;
79130;SDS011;70394;45.194;9.142;2023-06-22T00:37:17;5.50;;;3.85;;
79130;SDS011;70394;45.194;9.142;2023-06-22T00:39:42;4.90;;;3.60;;
79130;SDS011;70394;45.194;9.142;2023-06-22T00:42:08;4.43;;;3.63;;
79130;SDS011;70394;45.194;9.142;2023-06-22T00:44:34;5.22;;;3.63;;
79130;SDS011;70394;45.194;9.142;2023-06-22T00:47:00;5.28;;;3.65;;
79130;SDS011;70394;45.194;9.142;2023-06-22T00:49:25;4.57;;;3.42;;
79130;SDS011;70394;45.194;9.142;2023-06-22T00:51:51;5.22;;;3.63;;
79130;SDS011;70394;45.194;9.142;2023-06-22T00:54:17;5.63;;;3.80;;
79130;SDS011;70394;45.194;9.142;2023-06-22T00:56:55;4.93;;;3.55;;
79130;SDS011;70394;45.194;9.142;2023-06-22T00:59:23;4.93;;;3.83;;
79130;SDS011;70394;45.194;9.142;2023-06-22T01:01:49;5.03;;;3.80;;
79130;SDS011;70394;45.194;9.142;2023-06-22T01:04:14;5.55;;;3.85;;
79130;SDS011;70394;45.194;9.142;2023-06-22T01:06:57;4.47;;;3.25;;
79130;SDS011;70394;45.194;9.142;2023-06-22T01:09:32;4.93;;;3.35;;
79130;SDS011;70394;45.194;9.142;2023-06-22T01:12:06;4.95;;;3.45;;
79130;SDS011;70394;45.194;9.142;2023-06-22T01:14:41;5.07;;;3.45;;
79130;SDS011;70394;45.194;9.142;2023-06-22T01:17:12;4.68;;;3.47;;
79130;SDS011;70394;45.194;9.142;2023-06-22T01:19:50;4.75;;;3.58;;
79130;SDS011;70394;45.194;9.142;2023-06-22T01:22:22;4.50;;;3.42;;
79130;SDS011;70394;45.194;9.142;2023-06-22T01:30:18;5.63;;;4.15;;
79130;SDS011;70394;45.194;9.142;2023-06-22T01:32:44;4.78;;;3.63;;
79130;SDS011;70394;45.194;9.142;2023-06-22T01:35:10;4.85;;;3.63;;
79130;SDS011;70394;45.194;9.142;2023-06-22T01:37:37;5.57;;;3.67;;
79130;SDS011;70394;45.194;9.142;2023-06-22T01:40:03;5.85;;;3.60;;
79130;SDS011;70394;45.194;9.142;2023-06-22T01:42:31;4.95;;;3.60;;
79130;SDS011;70394;45.194;9.142;2023-06-22T01:44:57;5.13;;;3.72;;
79130;SDS011;70394;45.194;9.142;2023-06-22T01:47:24;5.22;;;3.60;;
79130;SDS011;70394;45.194;9.142;2023-06-22T01:49:50;4.63;;;3.65;;
79130;SDS011;70394;45.194;9.142;2023-06-22T01:52:19;7.78;;;3.90;;
79130;SDS011;70394;45.194;9.142;2023-06-22T01:54:46;4.90;;;3.67;;
79130;SDS011;70394;45.194;9.142;2023-06-22T01:57:12;4.85;;;3.60;;
79130;SDS011;70394;45.194;9.142;2023-06-22T01:59:39;5.78;;;3.70;;
79130;SDS011;70394;45.194;9.142;2023-06-22T02:02:24;5.80;;;4.13;;
79130;SDS011;70394;45.194;9.142;2023-06-22T02:04:56;7.32;;;3.70;;
79130;SDS011;70394;45.194;9.142;2023-06-22T02:07:26;4.63;;;3.47;;
79130;SDS011;70394;45.194;9.142;2023-06-22T02:09:57;4.75;;;3.50;;
79130;SDS011;70394;45.194;9.142;2023-06-22T02:12:24;6.85;;;3.83;;
79130;SDS011;70394;45.194;9.142;2023-06-22T02:14:52;5.13;;;3.60;;
79130;SDS011;70394;45.194;9.142;2023-06-22T02:17:18;4.80;;;3.50;;
79130;SDS011;70394;45.194;9.142;2023-06-22T02:19:44;4.38;;;3.47;;
79130;SDS011;70394;45.194;9.142;2023-06-22T02:22:10;5.00;;;3.40;;
79130;SDS011;70394;45.194;9.142;2023-06-22T02:24:37;4.30;;;3.13;;
79130;SDS011;70394;45.194;9.142;2023-06-22T02:27:03;4.75;;;3.60;;
79130;SDS011;70394;45.194;9.142;2023-06-22T02:29:29;4.63;;;3.40;;
79130;SDS011;70394;45.194;9.142;2023-06-22T02:31:54;4.53;;;3.25;;
79130;SDS011;70394;45.194;9.142;2023-06-22T02:34:21;4.53;;;3.40;;
79130;SDS011;70394;45.194;9.142;2023-06-22T02:36:47;5.50;;;3.50;;
79130;SDS011;70394;45.194;9.142;2023-06-22T02:39:20;4.32;;;3.20;;
79130;SDS011;70394;45.194;9.142;2023-06-22T02:41:47;4.60;;;3.42;;
79130;SDS011;70394;45.194;9.142;2023-06-22T02:44:13;4.80;;;3.42;;
79130;SDS011;70394;45.194;9.142;2023-06-22T02:46:39;4.07;;;3.13;;
79130;SDS011;70394;45.194;9.142;2023-06-22T02:49:04;4.70;;;3.53;;
79130;SDS011;70394;45.194;9.142;2023-06-22T02:51:30;4.55;;;3.55;;
79130;SDS011;70394;45.194;9.142;2023-06-22T02:53:58;4.72;;;3.35;;
79130;SDS011;70394;45.194;9.142;2023-06-22T02:56:24;5.50;;;3.70;;
79130;SDS011;70394;45.194;9.142;2023-06-22T02:58:49;4.80;;;3.35;;
79130;SDS011;70394;45.194;9.142;2023-06-22T03:01:15;4.40;;;3.38;;
79130;SDS011;70394;45.194;9.142;2023-06-22T03:03:40;5.47;;;3.58;;
79130;SDS011;70394;45.194;9.142;2023-06-22T03:06:05;4.60;;;3.45;;
79130;SDS011;70394;45.194;9.142;2023-06-22T03:08:31;5.05;;;3.33;;
79130;SDS011;70394;45.194;9.142;2023-06-22T03:10:56;5.30;;;3.40;;
79130;SDS011;70394;45.194;9.142;2023-06-22T03:13:22;5.15;;;3.10;;
79130;SDS011;70394;45.194;9.142;2023-06-22T03:15:48;5.22;;;3.80;;
79130;SDS011;70394;45.194;9.142;2023-06-22T03:18:13;5.75;;;3.50;;
79130;SDS011;70394;45.194;9.142;2023-06-22T03:20:38;4.55;;;3.50;;
79130;SDS011;70394;45.194;9.142;2023-06-22T03:23:04;5.13;;;3.80;;
79130;SDS011;70394;45.194;9.142;2023-06-22T03:25:30;5.50;;;3.63;;
79130;SDS011;70394;45.194;9.142;2023-06-22T03:27:55;4.60;;;3.50;;
79130;SDS011;70394;45.194;9.142;2023-06-22T03:30:20;5.03;;;3.35;;
79130;SDS011;70394;45.194;9.142;2023-06-22T03:32:46;4.20;;;3.17;;
79130;SDS011;70394;45.194;9.142;2023-06-22T03:35:11;4.72;;;3.40;;
79130;SDS011;70394;45.194;9.142;2023-06-22T03:37:39;5.47;;;3.58;;
79130;SDS011;70394;45.194;9.142;2023-06-22T03:40:04;4.95;;;3.50;;
79130;SDS011;70394;45.194;9.142;2023-06-22T03:42:31;4.35;;;3.40;;
79130;SDS011;70394;45.194;9.142;2023-06-22T03:44:56;5.10;;;3.53;;
79130;SDS011;70394;45.194;9.142;2023-06-22T03:47:22;4.50;;;3.38;;
79130;SDS011;70394;45.194;9.142;2023-06-22T03:49:48;4.30;;;3.30;;
79130;SDS011;70394;45.194;9.142;2023-06-22T03:52:13;4.70;;;3.42;;
79130;SDS011;70394;45.194;9.142;2023-06-22T03:54:39;4.68;;;3.35;;
79130;SDS011;70394;45.194;9.142;2023-06-22T03:57:04;4.72;;;3.20;;
79130;SDS011;70394;45.194;9.142;2023-06-22T03:59:30;5.43;;;3.65;;
79130;SDS011;70394;45.194;9.142;2023-06-22T04:01:55;5.15;;;3.67;;
79130;SDS011;70394;45.194;9.142;2023-06-22T04:04:21;5.55;;;3.70;;
79130;SDS011;70394;45.194;9.142;2023-06-22T04:06:46;5.22;;;3.83;;
79130;SDS011;70394;45.194;9.142;2023-06-22T04:09:11;5.28;;;3.67;;
79130;SDS011;70394;45.194;9.142;2023-06-22T04:11:37;4.93;;;3.40;;
79130;SDS011;70394;45.194;9.142;2023-06-22T04:14:02;4.68;;;3.42;;
79130;SDS011;70394;45.194;9.142;2023-06-22T04:16:28;4.70;;;3.17;;
79130;SDS011;70394;45.194;9.142;2023-06-22T04:18:53;5.03;;;3.47;;
79130;SDS011;70394;45.194;9.142;2023-06-22T04:21:18;4.93;;;3.40;;
79130;SDS011;70394;45.194;9.142;2023-06-22T04:23:47;4.93;;;3.60;;
79130;SDS011;70394;45.194;9.142;2023-06-22T04:26:13;5.50;;;3.83;;
79130;SDS011;70394;45.194;9.142;2023-06-22T04:28:39;4.32;;;3.42;;
79130;SDS011;70394;45.194;9.142;2023-06-22T04:31:05;4.43;;;3.30;;
79130;SDS011;70394;45.194;9.142;2023-06-22T04:33:30;5.55;;;3.53;;
79130;SDS011;70394;45.194;9.142;2023-06-22T04:35:56;4.55;;;3.25;;
79130;SDS011;70394;45.194;9.142;2023-06-22T04:38:22;4.80;;;3.50;;
79130;SDS011;70394;45.194;9.142;2023-06-22T04:40:48;5.43;;;3.75;;
79130;SDS011;70394;45.194;9.142;2023-06-22T04:43:14;4.72;;;3.70;;
79130;SDS011;70394;45.194;9.142;2023-06-22T04:45:39;5.90;;;3.60;;
79130;SDS011;70394;45.194;9.142;2023-06-22T04:48:05;5.15;;;3.67;;
79130;SDS011;70394;45.194;9.142;2023-06-22T04:50:31;4.85;;;3.50;;
79130;SDS011;70394;45.194;9.142;2023-06-22T04:52:56;6.97;;;4.82;;
79130;SDS011;70394;45.194;9.142;2023-06-22T04:55:23;6.25;;;4.70;;
79130;SDS011;70394;45.194;9.142;2023-06-22T04:57:50;6.32;;;4.68;;
79130;SDS011;70394;45.194;9.142;2023-06-22T05:00:19;11.73;;;6.13;;
79130;SDS011;70394;45.194;9.142;2023-06-22T05:02:45;11.98;;;6.78;;
79130;SDS011;70394;45.194;9.142;2023-06-22T05:05:11;11.40;;;6.35;;
79130;SDS011;70394;45.194;9.142;2023-06-22T05:07:43;7.95;;;6.63;;
79130;SDS011;70394;45.194;9.142;2023-06-22T05:10:10;12.63;;;6.40;;
79130;SDS011;70394;45.194;9.142;2023-06-22T05:12:37;10.98;;;5.95;;
79130;SDS011;70394;45.194;9.142;2023-06-22T05:15:03;9.70;;;6.47;;
79130;SDS011;70394;45.194;9.142;2023-06-22T05:17:29;9.18;;;6.18;;
79130;SDS011;70394;45.194;9.142;2023-06-22T05:19:54;11.27;;;6.45;;
79130;SDS011;70394;45.194;9.142;2023-06-22T05:22:20;9.82;;;6.70;;
79130;SDS011;70394;45.194;9.142;2023-06-22T05:24:45;11.10;;;6.63;;
79130;SDS011;70394;45.194;9.142;2023-06-22T05:27:10;11.13;;;7.00;;
79130;SDS011;70394;45.194;9.142;2023-06-22T05:29:36;10.48;;;6.50;;
79130;SDS011;70394;45.194;9.142;2023-06-22T05:32:02;10.90;;;7.18;;
79130;SDS011;70394;45.194;9.142;2023-06-22T05:34:28;11.15;;;6.70;;
79130;SDS011;70394;45.194;9.142;2023-06-22T05:36:53;9.48;;;6.00;;
79130;SDS011;70394;45.194;9.142;2023-06-22T05:39:19;9.82;;;6.40;;
79130;SDS011;70394;45.194;9.142;2023-06-22T05:41:44;9.95;;;6.68;;
79130;SDS011;70394;45.194;9.142;2023-06-22T05:44:11;8.95;;;6.00;;
79130;SDS011;70394;45.194;9.142;2023-06-22T05:46:37;11.45;;;6.70;;
79130;SDS011;70394;45.194;9.142;2023-06-22T05:49:04;11.27;;;6.13;;
79130;SDS011;70394;45.194;9.142;2023-06-22T05:51:29;9.45;;;6.35;;
79130;SDS011;70394;45.194;9.142;2023-06-22T05:53:54;11.13;;;5.88;;
79130;SDS011;70394;45.194;9.142;2023-06-22T05:56:20;12.60;;;7.00;;
79130;SDS011;70394;45.194;9.142;2023-06-22T05:58:45;9.70;;;6.60;;
79130;SDS011;70394;45.194;9.142;2023-06-22T06:01:12;12.07;;;6.70;;
79130;SDS011;70394;45.194;9.142;2023-06-22T06:03:38;8.18;;;5.85;;
79130;SDS011;70394;45.194;9.142;2023-06-22T06:06:06;8.88;;;5.72;;
79130;SDS011;70394;45.194;9.142;2023-06-22T06:08:32;8.68;;;6.03;;
79130;SDS011;70394;45.194;9.142;2023-06-22T06:10:57;10.30;;;6.40;;
79130;SDS011;70394;45.194;9.142;2023-06-22T06:13:23;9.23;;;5.75;;
79130;SDS011;70394;45.194;9.142;2023-06-22T06:15:48;16.40;;;7.03;;
79130;SDS011;70394;45.194;9.142;2023-06-22T06:18:16;11.60;;;6.55;;
79130;SDS011;70394;45.194;9.142;2023-06-22T06:20:42;8.27;;;6.25;;
79130;SDS011;70394;45.194;9.142;2023-06-22T06:23:07;10.38;;;6.55;;
79130;SDS011;70394;45.194;9.142;2023-06-22T06:25:33;12.15;;;6.53;;
79130;SDS011;70394;45.194;9.142;2023-06-22T06:27:58;11.18;;;6.75;;
79130;SDS011;70394;45.194;9.142;2023-06-22T06:30:24;10.93;;;6.72;;
79130;SDS011;70394;45.194;9.142;2023-06-22T06:32:49;8.98;;;6.70;;
79130;SDS011;70394;45.194;9.142;2023-06-22T06:35:15;9.05;;;7.07;;
79130;SDS011;70394;45.194;9.142;2023-06-22T06:37:42;12.05;;;7.18;;
79130;SDS011;70394;45.194;9.142;2023-06-22T06:40:09;11.88;;;7.32;;
79130;SDS011;70394;45.194;9.142;2023-06-22T06:42:37;9.90;;;7.05;;
79130;SDS011;70394;45.194;9.142;2023-06-22T06:45:04;11.00;;;7.30;;
79130;SDS011;70394;45.194;9.142;2023-06-22T06:47:30;16.05;;;7.47;;
79130;SDS011;70394;45.194;9.142;2023-06-22T06:49:55;11.60;;;6.97;;
79130;SDS011;70394;45.194;9.142;2023-06-22T06:52:20;10.85;;;6.18;;
79130;SDS011;70394;45.194;9.142;2023-06-22T06:54:46;13.15;;;6.97;;
79130;SDS011;70394;45.194;9.142;2023-06-22T06:57:11;13.23;;;7.95;;
79130;SDS011;70394;45.194;9.142;2023-06-22T06:59:38;21.58;;;8.68;;
79130;SDS011;70394;45.194;9.142;2023-06-22T07:02:04;12.52;;;8.13;;
79130;SDS011;70394;45.194;9.142;2023-06-22T07:04:29;12.60;;;7.28;;
79130;SDS011;70394;45.194;9.142;2023-06-22T07:06:55;10.98;;;7.55;;
79130;SDS011;70394;45.194;9.142;2023-06-22T07:09:20;12.70;;;7.30;;
79130;SDS011;70394;45.194;9.142;2023-06-22T07:11:45;13.00;;;7.70;;
79130;SDS011;70394;45.194;9.142;2023-06-22T07:14:11;12.77;;;8.02;;
79130;SDS011;70394;45.194;9.142;2023-06-22T07:16:36;13.27;;;7.97;;
79130;SDS011;70394;45.194;9.142;2023-06-22T07:19:01;10.07;;;7.55;;
79130;SDS011;70394;45.194;9.142;2023-06-22T07:21:27;11.65;;;7.82;;
79130;SDS011;70394;45.194;9.142;2023-06-22T07:23:52;10.57;;;6.90;;
79130;SDS011;70394;45.194;9.142;2023-06-22T07:26:19;10.07;;;6.97;;
79130;SDS011;70394;45.194;9.142;2023-06-22T07:28:44;11.77;;;7.78;;
79130;SDS011;70394;45.194;9.142;2023-06-22T07:31:10;14.15;;;7.55;;
79130;SDS011;70394;45.194;9.142;2023-06-22T07:33:35;10.90;;;8.13;;
79130;SDS011;70394;45.194;9.142;2023-06-22T07:36:00;13.60;;;8.23;;
79130;SDS011;70394;45.194;9.142;2023-06-22T07:38:28;14.98;;;8.70;;
79130;SDS011;70394;45.194;9.142;2023-06-22T07:40:54;16.58;;;8.05;;
79130;SDS011;70394;45.194;9.142;2023-06-22T07:43:19;13.77;;;8.20;;
79130;SDS011;70394;45.194;9.142;2023-06-22T07:45:48;12.10;;;8.75;;
79130;SDS011;70394;45.194;9.142;2023-06-22T07:48:17;12.00;;;7.80;;
79130;SDS011;70394;45.194;9.142;2023-06-22T07:50:44;12.18;;;7.70;;
79130;SDS011;70394;45.194;9.142;2023-06-22T07:53:10;11.02;;;7.90;;
79130;SDS011;70394;45.194;9.142;2023-06-22T07:55:35;10.77;;;7.15;;
79130;SDS011;70394;45.194;9.142;2023-06-22T07:58:00;12.98;;;8.73;;
79130;SDS011;70394;45.194;9.142;2023-06-22T08:00:26;12.55;;;7.93;;
79130;SDS011;70394;45.194;9.142;2023-06-22T08:02:51;9.98;;;7.20;;
79130;SDS011;70394;45.194;9.142;2023-06-22T08:05:16;11.23;;;7.15;;
79130;SDS011;70394;45.194;9.142;2023-06-22T08:07:42;12.32;;;7.57;;
79130;SDS011;70394;45.194;9.142;2023-06-22T08:10:12;11.18;;;7.25;;
79130;SDS011;70394;45.194;9.142;2023-06-22T08:12:40;8.50;;;6.70;;
79130;SDS011;70394;45.194;9.142;2023-06-22T08:15:06;8.80;;;7.05;;
79130;SDS011;70394;45.194;9.142;2023-06-22T08:17:32;10.65;;;7.22;;
79130;SDS011;70394;45.194;9.142;2023-06-22T08:19:58;10.68;;;7.15;;
79130;SDS011;70394;45.194;9.142;2023-06-22T08:22:23;11.98;;;7.10;;
79130;SDS011;70394;45.194;9.142;2023-06-22T08:24:49;9.95;;;6.88;;
79130;SDS011;70394;45.194;9.142;2023-06-22T08:27:14;10.13;;;7.50;;
79130;SDS011;70394;45.194;9.142;2023-06-22T08:29:41;8.80;;;6.78;;
79130;SDS011;70394;45.194;9.142;2023-06-22T08:32:10;9.95;;;7.00;;
79130;SDS011;70394;45.194;9.142;2023-06-22T08:34:36;9.90;;;7.07;;
79130;SDS011;70394;45.194;9.142;2023-06-22T08:37:01;10.18;;;7.25;;
79130;SDS011;70394;45.194;9.142;2023-06-22T08:39:31;9.45;;;6.90;;
79130;SDS011;70394;45.194;9.142;2023-06-22T08:41:56;9.50;;;7.85;;
79130;SDS011;70394;45.194;9.142;2023-06-22T08:44:22;10.85;;;7.60;;
79130;SDS011;70394;45.194;9.142;2023-06-22T08:46:47;15.88;;;9.85;;
79130;SDS011;70394;45.194;9.142;2023-06-22T08:49:13;12.82;;;7.80;;
79130;SDS011;70394;45.194;9.142;2023-06-22T08:51:38;14.10;;;8.35;;
79130;SDS011;70394;45.194;9.142;2023-06-22T08:54:03;18.67;;;8.05;;
79130;SDS011;70394;45.194;9.142;2023-06-22T08:56:29;10.63;;;7.88;;
79130;SDS011;70394;45.194;9.142;2023-06-22T08:58:55;11.15;;;7.68;;
79130;SDS011;70394;45.194;9.142;2023-06-22T09:01:20;9.57;;;6.95;;
79130;SDS011;70394;45.194;9.142;2023-06-22T09:03:46;9.30;;;6.95;;
79130;SDS011;70394;45.194;9.142;2023-06-22T09:06:19;11.65;;;7.80;;
79130;SDS011;70394;45.194;9.142;2023-06-22T09:08:46;13.25;;;8.00;;
79130;SDS011;70394;45.194;9.142;2023-06-22T09:11:12;13.52;;;8.10;;
79130;SDS011;70394;45.194;9.142;2023-06-22T09:13:37;13.07;;;8.25;;
79130;SDS011;70394;45.194;9.142;2023-06-22T09:16:03;12.52;;;7.90;;
79130;SDS011;70394;45.194;9.142;2023-06-22T09:18:28;10.88;;;8.05;;
79130;SDS011;70394;45.194;9.142;2023-06-22T09:20:54;10.95;;;8.35;;
79130;SDS011;70394;45.194;9.142;2023-06-22T09:23:19;11.77;;;8.25;;
79130;SDS011;70394;45.194;9.142;2023-06-22T09:25:44;11.75;;;8.73;;
79130;SDS011;70394;45.194;9.142;2023-06-22T09:28:12;10.93;;;8.27;;
79130;SDS011;70394;45.194;9.142;2023-06-22T09:30:37;10.70;;;9.02;;
79130;SDS011;70394;45.194;9.142;2023-06-22T09:33:02;11.25;;;8.13;;
79130;SDS011;70394;45.194;9.142;2023-06-22T09:35:28;10.50;;;8.48;;
79130;SDS011;70394;45.194;9.142;2023-06-22T09:37:53;11.18;;;9.40;;
79130;SDS011;70394;45.194;9.142;2023-06-22T09:40:18;12.10;;;9.57;;
79130;SDS011;70394;45.194;9.142;2023-06-22T09:42:45;15.07;;;9.50;;
79130;SDS011;70394;45.194;9.142;2023-06-22T09:45:10;13.88;;;8.93;;
79130;SDS011;70394;45.194;9.142;2023-06-22T09:47:36;12.73;;;8.98;;
79130;SDS011;70394;45.194;9.142;2023-06-22T09:50:01;11.75;;;9.05;;
79130;SDS011;70394;45.194;9.142;2023-06-22T09:52:27;12.55;;;9.23;;
79130;SDS011;70394;45.194;9.142;2023-06-22T09:54:52;14.77;;;8.95;;
79130;SDS011;70394;45.194;9.142;2023-06-22T09:57:17;11.13;;;8.75;;
79130;SDS011;70394;45.194;9.142;2023-06-22T09:59:43;15.30;;;9.20;;
79130;SDS011;70394;45.194;9.142;2023-06-22T10:02:08;12.70;;;8.95;;
79130;SDS011;70394;45.194;9.142;2023-06-22T10:04:34;13.02;;;9.60;;
79130;SDS011;70394;45.194;9.142;2023-06-22T10:07:00;13.82;;;8.80;;
79130;SDS011;70394;45.194;9.142;2023-06-22T10:09:26;12.15;;;9.45;;
79130;SDS011;70394;45.194;9.142;2023-06-22T10:11:52;11.80;;;9.63;;
79130;SDS011;70394;45.194;9.142;2023-06-22T10:14:17;13.52;;;8.98;;
79130;SDS011;70394;45.194;9.142;2023-06-22T10:16:42;12.48;;;9.25;;
79130;SDS011;70394;45.194;9.142;2023-06-22T10:19:08;11.48;;;8.95;;
79130;SDS011;70394;45.194;9.142;2023-06-22T10:21:33;9.93;;;8.43;;
79130;SDS011;70394;45.194;9.142;2023-06-22T10:23:59;14.35;;;9.00;;
79130;SDS011;70394;45.194;9.142;2023-06-22T10:26:31;10.75;;;8.25;;
79130;SDS011;70394;45.194;9.142;2023-06-22T10:28:59;11.82;;;8.27;;
79130;SDS011;70394;45.194;9.142;2023-06-22T10:31:25;13.60;;;8.27;;
79130;SDS011;70394;45.194;9.142;2023-06-22T10:33:50;12.13;;;8.23;;
79130;SDS011;70394;45.194;9.142;2023-06-22T10:36:15;11.35;;;8.80;;
79130;SDS011;70394;45.194;9.142;2023-06-22T10:38:41;10.98;;;8.48;;
79130;SDS011;70394;45.194;9.142;2023-06-22T10:41:06;10.52;;;7.57;;
79130;SDS011;70394;45.194;9.142;2023-06-22T10:43:32;10.50;;;7.80;;
79130;SDS011;70394;45.194;9.142;2023-06-22T10:45:57;12.80;;;8.02;;
79130;SDS011;70394;45.194;9.142;2023-06-22T10:48:23;10.40;;;7.95;;
79130;SDS011;70394;45.194;9.142;2023-06-22T10:50:48;13.60;;;8.43;;
79130;SDS011;70394;45.194;9.142;2023-06-22T10:53:13;11.25;;;8.32;;
79130;SDS011;70394;45.194;9.142;2023-06-22T10:55:39;12.50;;;8.10;;
79130;SDS011;70394;45.194;9.142;2023-06-22T10:58:04;10.98;;;7.25;;
79130;SDS011;70394;45.194;9.142;2023-06-22T11:00:29;9.40;;;7.75;;
79130;SDS011;70394;45.194;9.142;2023-06-22T11:02:55;11.13;;;9.20;;
79130;SDS011;70394;45.194;9.142;2023-06-22T11:05:20;10.15;;;7.93;;
79130;SDS011;70394;45.194;9.142;2023-06-22T11:07:45;10.55;;;8.20;;
79130;SDS011;70394;45.194;9.142;2023-06-22T11:10:11;9.82;;;8.48;;
79130;SDS011;70394;45.194;9.142;2023-06-22T11:12:37;12.93;;;8.63;;
79130;SDS011;70394;45.194;9.142;2023-06-22T11:15:03;10.10;;;8.50;;
79130;SDS011;70394;45.194;9.142;2023-06-22T11:17:29;14.48;;;9.00;;
79130;SDS011;70394;45.194;9.142;2023-06-22T11:19:54;13.38;;;8.65;;
79130;SDS011;70394;45.194;9.142;2023-06-22T11:22:19;11.68;;;7.97;;
79130;SDS011;70394;45.194;9.142;2023-06-22T11:24:45;11.30;;;8.00;;
79130;SDS011;70394;45.194;9.142;2023-06-22T11:27:10;10.88;;;7.97;;
79130;SDS011;70394;45.194;9.142;2023-06-22T11:29:35;12.80;;;7.82;;
79130;SDS011;70394;45.194;9.142;2023-06-22T11:32:01;10.40;;;7.80;;
79130;SDS011;70394;45.194;9.142;2023-06-22T11:34:26;11.00;;;7.35;;
79130;SDS011;70394;45.194;9.142;2023-06-22T11:36:53;14.98;;;7.53;;
79130;SDS011;70394;45.194;9.142;2023-06-22T11:39:18;10.38;;;7.60;;
79130;SDS011;70394;45.194;9.142;2023-06-22T11:41:43;15.80;;;8.15;;
79130;SDS011;70394;45.194;9.142;2023-06-22T11:44:09;10.38;;;7.20;;
79130;SDS011;70394;45.194;9.142;2023-06-22T11:46:34;11.63;;;7.93;;
79130;SDS011;70394;45.194;9.142;2023-06-22T11:49:00;33.05;;;8.75;;
79130;SDS011;70394;45.194;9.142;2023-06-22T11:51:26;10.70;;;7.78;;
79130;SDS011;70394;45.194;9.142;2023-06-22T11:53:51;12.20;;;7.88;;
79130;SDS011;70394;45.194;9.142;2023-06-22T11:56:17;11.27;;;8.25;;
79130;SDS011;70394;45.194;9.142;2023-06-22T11:58:42;9.93;;;8.10;;
79130;SDS011;70394;45.194;9.142;2023-06-22T12:01:07;10.93;;;7.65;;
79130;SDS011;70394;45.194;9.142;2023-06-22T12:03:33;9.80;;;7.78;;
79130;SDS011;70394;45.194;9.142;2023-06-22T12:05:59;11.05;;;7.82;;
79130;SDS011;70394;45.194;9.142;2023-06-22T12:08:24;12.77;;;7.93;;
79130;SDS011;70394;45.194;9.142;2023-06-22T12:10:50;11.05;;;8.60;;
79130;SDS011;70394;45.194;9.142;2023-06-22T12:13:15;13.10;;;7.13;;
79130;SDS011;70394;45.194;9.142;2023-06-22T12:15:41;10.70;;;7.43;;
79130;SDS011;70394;45.194;9.142;2023-06-22T12:18:06;12.02;;;7.55;;
79130;SDS011;70394;45.194;9.142;2023-06-22T12:20:31;10.57;;;7.45;;
79130;SDS011;70394;45.194;9.142;2023-06-22T12:22:57;11.20;;;7.70;;
79130;SDS011;70394;45.194;9.142;2023-06-22T12:25:23;11.80;;;8.00;;
79130;SDS011;70394;45.194;9.142;2023-06-22T12:27:48;10.45;;;8.00;;
79130;SDS011;70394;45.194;9.142;2023-06-22T12:30:15;13.73;;;8.40;;
79130;SDS011;70394;45.194;9.142;2023-06-22T12:32:41;10.70;;;7.80;;
79130;SDS011;70394;45.194;9.142;2023-06-22T12:35:06;12.50;;;8.30;;
79130;SDS011;70394;45.194;9.142;2023-06-22T12:37:37;12.85;;;8.23;;
79130;SDS011;70394;45.194;9.142;2023-06-22T12:40:02;10.52;;;8.05;;
79130;SDS011;70394;45.194;9.142;2023-06-22T12:42:29;10.75;;;8.20;;
79130;SDS011;70394;45.194;9.142;2023-06-22T12:44:54;12.00;;;7.93;;
79130;SDS011;70394;45.194;9.142;2023-06-22T12:47:20;10.98;;;8.13;;
79130;SDS011;70394;45.194;9.142;2023-06-22T12:49:45;11.23;;;7.75;;
79130;SDS011;70394;45.194;9.142;2023-06-22T12:52:10;11.20;;;8.60;;
79130;SDS011;70394;45.194;9.142;2023-06-22T12:54:36;10.93;;;7.93;;
79130;SDS011;70394;45.194;9.142;2023-06-22T12:57:02;12.60;;;8.88;;
79130;SDS011;70394;45.194;9.142;2023-06-22T12:59:27;13.13;;;8.98;;
79130;SDS011;70394;45.194;9.142;2023-06-22T13:01:52;9.57;;;8.13;;
79130;SDS011;70394;45.194;9.142;2023-06-22T13:04:18;12.25;;;8.63;;
79130;SDS011;70394;45.194;9.142;2023-06-22T13:06:46;11.85;;;8.40;;
79130;SDS011;70394;45.194;9.142;2023-06-22T13:09:13;12.43;;;8.02;;
79130;SDS011;70394;45.194;9.142;2023-06-22T13:11:40;12.02;;;8.20;;
79130;SDS011;70394;45.194;9.142;2023-06-22T13:14:05;12.68;;;8.60;;
79130;SDS011;70394;45.194;9.142;2023-06-22T13:16:30;13.30;;;8.25;;
79130;SDS011;70394;45.194;9.142;2023-06-22T13:18:56;11.60;;;8.13;;
79130;SDS011;70394;45.194;9.142;2023-06-22T13:21:21;11.50;;;7.63;;
79130;SDS011;70394;45.194;9.142;2023-06-22T13:23:46;11.20;;;7.50;;
79130;SDS011;70394;45.194;9.142;2023-06-22T13:26:12;11.75;;;8.00;;
79130;SDS011;70394;45.194;9.142;2023-06-22T13:28:37;9.82;;;8.00;;
79130;SDS011;70394;45.194;9.142;2023-06-22T13:31:03;11.23;;;7.60;;
79130;SDS011;70394;45.194;9.142;2023-06-22T13:33:28;9.57;;;7.70;;
79130;SDS011;70394;45.194;9.142;2023-06-22T13:35:54;10.57;;;7.53;;
79130;SDS011;70394;45.194;9.142;2023-06-22T13:38:19;9.15;;;7.30;;
79130;SDS011;70394;45.194;9.142;2023-06-22T13:40:44;11.80;;;7.13;;
79130;SDS011;70394;45.194;9.142;2023-06-22T13:43:10;13.38;;;8.25;;
79130;SDS011;70394;45.194;9.142;2023-06-22T13:45:35;10.30;;;6.78;;
79130;SDS011;70394;45.194;9.142;2023-06-22T13:48:01;9.20;;;6.95;;
79130;SDS011;70394;45.194;9.142;2023-06-22T13:50:26;8.55;;;6.57;;
79130;SDS011;70394;45.194;9.142;2023-06-22T13:52:51;9.25;;;7.28;;
79130;SDS011;70394;45.194;9.142;2023-06-22T13:55:17;11.68;;;7.38;;
79130;SDS011;70394;45.194;9.142;2023-06-22T13:57:42;10.50;;;6.63;;
79130;SDS011;70394;45.194;9.142;2023-06-22T14:00:08;11.68;;;6.80;;
79130;SDS011;70394;45.194;9.142;2023-06-22T14:02:34;9.48;;;6.78;;
79130;SDS011;70394;45.194;9.142;2023-06-22T14:04:59;10.27;;;7.25;;
79130;SDS011;70394;45.194;9.142;2023-06-22T14:07:25;9.05;;;6.80;;
79130;SDS011;70394;45.194;9.142;2023-06-22T14:09:50;12.18;;;7.25;;
79130;SDS011;70394;45.194;9.142;2023-06-22T14:12:16;10.27;;;7.47;;
79130;SDS011;70394;45.194;9.142;2023-06-22T14:14:43;8.30;;;6.38;;
79130;SDS011;70394;45.194;9.142;2023-06-22T14:17:08;10.38;;;7.28;;
79130;SDS011;70394;45.194;9.142;2023-06-22T14:19:34;9.57;;;6.90;;
79130;SDS011;70394;45.194;9.142;2023-06-22T14:21:59;10.20;;;7.10;;
79130;SDS011;70394;45.194;9.142;2023-06-22T14:24:25;8.10;;;6.68;;
79130;SDS011;70394;45.194;9.142;2023-06-22T14:26:50;10.98;;;7.13;;
79130;SDS011;70394;45.194;9.142;2023-06-22T14:29:15;9.57;;;7.13;;
79130;SDS011;70394;45.194;9.142;2023-06-22T14:31:44;10.15;;;8.07;;
79130;SDS011;70394;45.194;9.142;2023-06-22T14:34:10;10.60;;;7.00;;
79130;SDS011;70394;45.194;9.142;2023-06-22T14:36:35;11.75;;;7.38;;
79130;SDS011;70394;45.194;9.142;2023-06-22T14:39:01;10.13;;;7.10;;